Tuckerman, Arkansas
Current Conditions -  °F | °C
As of 12:56 PM on Sunday 23 Nov 2014 (Local Time) from KM19 Reporting Station
Moderate Rain Moderate Rain  
Wind Chill: 59°   Ceiling: 500
Heat Index: 59°   Visibility: 10mi
Dew Point: 58°   Wind: 8mph
Humidity: 96%   Direction: 140°SE
Pressure: 29.42"   Gusts: 20mph
Location:  35.73°N, 91.2°W
Report Text: KM19 231856Z AUTO 14007G17KT 10SM RA OVC005 15/14 A2942 RMK AO2 T01500144 P0008 SLP961
Loading
Personal Weather Stations






























Interactive Weather Map New forecast layout! Learn more

10-Day Weather Forecast

Advertisements
Track Severe Weather on mobile